sensor_id;sensor_type;location;lat;lon;timestamp;pressure;altitude;pressure_sealevel;temperature;humidity
21086;BME280;34247;50.064;19.970;2023-05-22T00:00:32;99519.84;;;16.58;67.55
21086;BME280;34247;50.064;19.970;2023-05-22T00:02:30;99526.31;;;16.55;67.51
21086;BME280;34247;50.064;19.970;2023-05-22T00:04:28;99516.84;;;16.51;67.79
21086;BME280;34247;50.064;19.970;2023-05-22T00:06:27;99519.53;;;16.51;67.87
21086;BME280;34247;50.064;19.970;2023-05-22T00:08:27;99523.19;;;16.50;67.90
21086;BME280;34247;50.064;19.970;2023-05-22T00:10:27;99514.59;;;16.46;68.72
21086;BME280;34247;50.064;19.970;2023-05-22T00:12:26;99516.00;;;16.41;68.68
21086;BME280;34247;50.064;19.970;2023-05-22T00:14:23;99508.66;;;16.43;68.08
21086;BME280;34247;50.064;19.970;2023-05-22T00:16:21;99500.06;;;16.39;68.11
21086;BME280;34247;50.064;19.970;2023-05-22T00:18:19;99503.28;;;16.33;67.18
21086;BME280;34247;50.064;19.970;2023-05-22T00:20:17;99499.75;;;16.33;66.89
21086;BME280;34247;50.064;19.970;2023-05-22T00:22:15;99507.09;;;16.31;67.57
21086;BME280;34247;50.064;19.970;2023-05-22T00:24:13;99506.25;;;16.30;66.70
21086;BME280;34247;50.064;19.970;2023-05-22T00:26:15;99501.97;;;16.27;66.44
21086;BME280;34247;50.064;19.970;2023-05-22T00:28:14;99502.72;;;16.30;66.00
21086;BME280;34247;50.064;19.970;2023-05-22T00:30:12;99504.53;;;16.29;65.42
21086;BME280;34247;50.064;19.970;2023-05-22T00:32:10;99508.78;;;16.32;65.14
21086;BME280;34247;50.064;19.970;2023-05-22T00:34:08;99502.81;;;16.28;64.13
21086;BME280;34247;50.064;19.970;2023-05-22T00:36:07;99504.41;;;16.31;64.19
21086;BME280;34247;50.064;19.970;2023-05-22T00:38:07;99498.59;;;16.25;63.85
21086;BME280;34247;50.064;19.970;2023-05-22T00:40:06;99503.81;;;16.27;63.98
21086;BME280;34247;50.064;19.970;2023-05-22T00:42:05;99510.75;;;16.30;64.28
21086;BME280;34247;50.064;19.970;2023-05-22T00:44:04;99505.50;;;16.28;64.05
21086;BME280;34247;50.064;19.970;2023-05-22T00:46:02;99501.13;;;16.27;64.20
21086;BME280;34247;50.064;19.970;2023-05-22T00:48:00;99506.31;;;16.19;63.44
21086;BME280;34247;50.064;19.970;2023-05-22T00:49:58;99500.81;;;16.20;63.90
21086;BME280;34247;50.064;19.970;2023-05-22T00:51:57;99499.97;;;16.20;63.18
21086;BME280;34247;50.064;19.970;2023-05-22T00:53:55;99496.75;;;16.16;63.01
21086;BME280;34247;50.064;19.970;2023-05-22T00:55:54;99500.50;;;16.14;62.93
21086;BME280;34247;50.064;19.970;2023-05-22T00:57:53;99492.38;;;16.15;63.04
21086;BME280;34247;50.064;19.970;2023-05-22T00:59:52;99500.94;;;16.09;62.69
21086;BME280;34247;50.064;19.970;2023-05-22T01:01:50;99501.66;;;16.11;63.04
21086;BME280;34247;50.064;19.970;2023-05-22T01:03:51;99499.66;;;16.13;62.86
21086;BME280;34247;50.064;19.970;2023-05-22T01:05:49;99495.16;;;16.14;62.66
21086;BME280;34247;50.064;19.970;2023-05-22T01:07:48;99497.13;;;16.12;62.65
21086;BME280;34247;50.064;19.970;2023-05-22T01:09:47;99497.41;;;16.09;62.24
21086;BME280;34247;50.064;19.970;2023-05-22T01:12:21;99490.47;;;16.06;62.20
21086;BME280;34247;50.064;19.970;2023-05-22T01:21:57;99492.66;;;15.91;62.83
21086;BME280;34247;50.064;19.970;2023-05-22T01:24:37;99491.13;;;15.89;63.46
21086;BME280;34247;50.064;19.970;2023-05-22T01:27:24;99479.81;;;15.85;63.95
21086;BME280;34247;50.064;19.970;2023-05-22T01:29:55;99487.28;;;15.82;64.31
21086;BME280;34247;50.064;19.970;2023-05-22T01:32:00;99493.16;;;15.76;64.25
21086;BME280;34247;50.064;19.970;2023-05-22T01:34:01;99489.03;;;15.71;64.09
21086;BME280;34247;50.064;19.970;2023-05-22T01:36:01;99491.16;;;15.68;63.94
21086;BME280;34247;50.064;19.970;2023-05-22T01:38:01;99492.13;;;15.67;64.03
21086;BME280;34247;50.064;19.970;2023-05-22T01:40:01;99488.59;;;15.66;64.21
21086;BME280;34247;50.064;19.970;2023-05-22T01:41:59;99491.41;;;15.65;64.08
21086;BME280;34247;50.064;19.970;2023-05-22T01:43:59;99482.78;;;15.61;63.99
21086;BME280;34247;50.064;19.970;2023-05-22T01:45:58;99481.34;;;15.57;64.51
21086;BME280;34247;50.064;19.970;2023-05-22T01:47:57;99492.06;;;15.57;64.12
21086;BME280;34247;50.064;19.970;2023-05-22T01:49:55;99487.06;;;15.53;64.33
21086;BME280;34247;50.064;19.970;2023-05-22T01:52:04;99488.19;;;15.50;65.35
21086;BME280;34247;50.064;19.970;2023-05-22T01:54:23;99486.75;;;15.46;65.23
21086;BME280;34247;50.064;19.970;2023-05-22T01:56:31;99483.38;;;15.44;65.19
21086;BME280;34247;50.064;19.970;2023-05-22T02:00:32;99484.13;;;15.35;65.13
21086;BME280;34247;50.064;19.970;2023-05-22T04:15:27;99486.03;;;14.59;71.41
21086;BME280;34247;50.064;19.970;2023-05-22T04:16:43;99490.03;;;14.65;70.97
21086;BME280;34247;50.064;19.970;2023-05-22T04:17:53;99484.41;;;14.68;70.92
21086;BME280;34247;50.064;19.970;2023-05-22T04:50:21;99467.09;;;17.64;60.77
21086;BME280;34247;50.064;19.970;2023-05-22T04:51:28;99469.91;;;17.82;59.79
21086;BME280;34247;50.064;19.970;2023-05-22T04:52:14;99462.50;;;17.94;59.37
21086;BME280;34247;50.064;19.970;2023-05-22T04:53:09;99470.22;;;18.07;58.61
21086;BME280;34247;50.064;19.970;2023-05-22T04:53:53;99466.66;;;18.16;58.16
21086;BME280;34247;50.064;19.970;2023-05-22T04:55:12;99471.69;;;18.29;57.01
21086;BME280;34247;50.064;19.970;2023-05-22T04:59:21;99462.59;;;18.85;54.30
21086;BME280;34247;50.064;19.970;2023-05-22T05:00:19;99464.88;;;18.97;54.06
21086;BME280;34247;50.064;19.970;2023-05-22T05:01:27;99460.78;;;19.11;53.67
21086;BME280;34247;50.064;19.970;2023-05-22T05:02:28;99469.31;;;19.24;53.13
21086;BME280;34247;50.064;19.970;2023-05-22T05:04:07;99468.19;;;19.53;52.40
21086;BME280;34247;50.064;19.970;2023-05-22T05:05:15;99471.03;;;19.69;51.85
21086;BME280;34247;50.064;19.970;2023-05-22T05:06:21;99456.00;;;19.85;51.35
21086;BME280;34247;50.064;19.970;2023-05-22T05:07:22;99473.75;;;20.03;51.17
21086;BME280;34247;50.064;19.970;2023-05-22T05:08:23;99464.59;;;20.22;50.66
21086;BME280;34247;50.064;19.970;2023-05-22T06:58:09;99414.41;;;34.92;22.43
21086;BME280;34247;50.064;19.970;2023-05-22T07:00:05;99420.47;;;35.53;21.96
21086;BME280;34247;50.064;19.970;2023-05-22T07:01:56;99422.72;;;35.98;21.39
21086;BME280;34247;50.064;19.970;2023-05-22T07:03:48;99414.06;;;36.37;21.10
21086;BME280;34247;50.064;19.970;2023-05-22T07:05:39;99419.69;;;36.62;20.85
21086;BME280;34247;50.064;19.970;2023-05-22T07:07:36;99422.06;;;36.33;21.21
21086;BME280;34247;50.064;19.970;2023-05-22T07:09:28;99420.22;;;35.97;21.30
21086;BME280;34247;50.064;19.970;2023-05-22T07:11:18;99420.19;;;35.49;21.92
21086;BME280;34247;50.064;19.970;2023-05-22T07:13:10;99414.94;;;35.53;21.74
21086;BME280;34247;50.064;19.970;2023-05-22T07:15:02;99415.66;;;36.28;21.44
21086;BME280;34247;50.064;19.970;2023-05-22T07:16:53;99418.47;;;36.33;21.11
21086;BME280;34247;50.064;19.970;2023-05-22T07:18:48;99425.50;;;36.51;20.58
21086;BME280;34247;50.064;19.970;2023-05-22T07:20:47;99424.53;;;36.35;20.86
21086;BME280;34247;50.064;19.970;2023-05-22T07:22:37;99411.38;;;36.57;20.46
21086;BME280;34247;50.064;19.970;2023-05-22T07:24:29;99416.16;;;36.82;20.43
21086;BME280;34247;50.064;19.970;2023-05-22T07:26:20;99407.41;;;37.16;20.04
21086;BME280;34247;50.064;19.970;2023-05-22T07:28:11;99407.38;;;37.62;19.74
21086;BME280;34247;50.064;19.970;2023-05-22T07:30:03;99410.69;;;37.84;19.50
21086;BME280;34247;50.064;19.970;2023-05-22T07:31:55;99403.50;;;38.53;18.69
21086;BME280;34247;50.064;19.970;2023-05-22T07:33:46;99402.94;;;39.05;18.60
21086;BME280;34247;50.064;19.970;2023-05-22T07:35:38;99408.13;;;38.78;18.64
21086;BME280;34247;50.064;19.970;2023-05-22T07:37:29;99408.28;;;38.47;18.71
21086;BME280;34247;50.064;19.970;2023-05-22T07:39:20;99408.94;;;38.78;18.53
21086;BME280;34247;50.064;19.970;2023-05-22T07:41:12;99406.41;;;38.82;18.96
21086;BME280;34247;50.064;19.970;2023-05-22T07:43:04;99406.28;;;38.53;18.52
21086;BME280;34247;50.064;19.970;2023-05-22T07:44:55;99407.28;;;38.07;19.22
21086;BME280;34247;50.064;19.970;2023-05-22T07:46:49;99410.03;;;38.28;18.97
21086;BME280;34247;50.064;19.970;2023-05-22T07:48:42;99400.78;;;38.97;18.39
21086;BME280;34247;50.064;19.970;2023-05-22T07:50:33;99404.97;;;38.89;18.28
21086;BME280;34247;50.064;19.970;2023-05-22T07:52:24;99411.50;;;39.09;18.35
21086;BME280;34247;50.064;19.970;2023-05-22T07:54:16;99406.78;;;39.49;18.39
21086;BME280;34247;50.064;19.970;2023-05-22T07:56:07;99411.44;;;39.82;17.79
21086;BME280;34247;50.064;19.970;2023-05-22T07:57:58;99407.50;;;39.88;17.68
21086;BME280;34247;50.064;19.970;2023-05-22T07:59:49;99405.75;;;39.68;17.78
21086;BME280;34247;50.064;19.970;2023-05-22T08:01:44;99408.81;;;39.67;17.42
21086;BME280;34247;50.064;19.970;2023-05-22T08:03:35;99412.56;;;39.81;17.10
21086;BME280;34247;50.064;19.970;2023-05-22T08:05:26;99408.75;;;39.77;17.19
21086;BME280;34247;50.064;19.970;2023-05-22T08:07:17;99407.25;;;39.85;17.58
21086;BME280;34247;50.064;19.970;2023-05-22T08:09:08;99410.25;;;40.17;16.96
21086;BME280;34247;50.064;19.970;2023-05-22T08:10:59;99399.38;;;40.21;16.67
21086;BME280;34247;50.064;19.970;2023-05-22T08:12:53;99406.78;;;40.07;17.15
21086;BME280;34247;50.064;19.970;2023-05-22T08:14:44;99399.63;;;39.95;17.37
21086;BME280;34247;50.064;19.970;2023-05-22T08:16:38;99409.13;;;39.65;17.34
21086;BME280;34247;50.064;19.970;2023-05-22T08:18:29;99398.69;;;39.47;17.45
21086;BME280;34247;50.064;19.970;2023-05-22T08:20:21;99407.00;;;40.10;16.97
21086;BME280;34247;50.064;19.970;2023-05-22T08:22:12;99415.16;;;40.49;16.85
21086;BME280;34247;50.064;19.970;2023-05-22T08:24:03;99405.22;;;40.62;16.50
21086;BME280;34247;50.064;19.970;2023-05-22T08:25:55;99418.38;;;40.75;16.61
21086;BME280;34247;50.064;19.970;2023-05-22T08:27:45;99409.81;;;40.72;16.44
21086;BME280;34247;50.064;19.970;2023-05-22T08:29:36;99405.00;;;39.87;16.93
21086;BME280;34247;50.064;19.970;2023-05-22T08:31:28;99411.59;;;38.49;18.02
21086;BME280;34247;50.064;19.970;2023-05-22T08:33:20;99418.59;;;36.58;19.07
21086;BME280;34247;50.064;19.970;2023-05-22T08:35:10;99416.66;;;34.73;20.56
21086;BME280;34247;50.064;19.970;2023-05-22T08:37:02;99414.72;;;33.18;22.00
21086;BME280;34247;50.064;19.970;2023-05-22T08:38:53;99416.31;;;31.82;23.26
21086;BME280;34247;50.064;19.970;2023-05-22T08:40:47;99412.81;;;30.98;24.59
21086;BME280;34247;50.064;19.970;2023-05-22T08:42:39;99418.66;;;30.23;25.03
21086;BME280;34247;50.064;19.970;2023-05-22T08:44:30;99430.59;;;29.42;25.92
21086;BME280;34247;50.064;19.970;2023-05-22T08:46:23;99425.09;;;28.85;26.89
21086;BME280;34247;50.064;19.970;2023-05-22T08:48:17;99422.84;;;28.31;27.77
21086;BME280;34247;50.064;19.970;2023-05-22T08:50:11;99420.59;;;28.01;27.87
21086;BME280;34247;50.064;19.970;2023-05-22T08:52:20;99414.56;;;27.80;28.04
21086;BME280;34247;50.064;19.970;2023-05-22T08:54:14;99419.63;;;27.43;29.06
21086;BME280;34247;50.064;19.970;2023-05-22T08:56:09;99415.41;;;27.07;29.42
21086;BME280;34247;50.064;19.970;2023-05-22T08:58:01;99406.19;;;27.08;29.97
21086;BME280;34247;50.064;19.970;2023-05-22T08:59:52;99404.13;;;27.17;30.12
21086;BME280;34247;50.064;19.970;2023-05-22T09:01:44;99417.53;;;27.12;30.06
21086;BME280;34247;50.064;19.970;2023-05-22T09:03:36;99404.97;;;27.11;30.04
21086;BME280;34247;50.064;19.970;2023-05-22T09:05:28;99412.31;;;27.24;29.87
21086;BME280;34247;50.064;19.970;2023-05-22T09:07:19;99400.13;;;27.19;29.94
21086;BME280;34247;50.064;19.970;2023-05-22T09:09:10;99403.28;;;27.30;29.81
21086;BME280;34247;50.064;19.970;2023-05-22T09:11:01;99418.16;;;27.27;29.31
21086;BME280;34247;50.064;19.970;2023-05-22T09:13:07;99400.06;;;26.73;28.40
21086;BME280;34247;50.064;19.970;2023-05-22T09:15:09;99395.22;;;26.14;28.89
21086;BME280;34247;50.064;19.970;2023-05-22T09:17:00;99390.97;;;25.70;29.60
21086;BME280;34247;50.064;19.970;2023-05-22T09:18:51;99390.91;;;25.57;29.70
21086;BME280;34247;50.064;19.970;2023-05-22T09:20:42;99392.59;;;25.58;29.43
21086;BME280;34247;50.064;19.970;2023-05-22T09:22:37;99392.38;;;25.60;29.91
21086;BME280;34247;50.064;19.970;2023-05-22T09:24:28;99379.03;;;25.65;29.98
21086;BME280;34247;50.064;19.970;2023-05-22T09:26:20;99392.13;;;25.54;30.39
21086;BME280;34247;50.064;19.970;2023-05-22T09:28:11;99396.81;;;25.39;30.92
21086;BME280;34247;50.064;19.970;2023-05-22T09:30:05;99384.75;;;25.20;31.15
21086;BME280;34247;50.064;19.970;2023-05-22T09:32:02;99386.00;;;25.18;31.01
21086;BME280;34247;50.064;19.970;2023-05-22T09:33:55;99384.66;;;25.07;30.98
21086;BME280;34247;50.064;19.970;2023-05-22T09:35:46;99379.09;;;24.94;31.19
21086;BME280;34247;50.064;19.970;2023-05-22T09:37:38;99379.78;;;25.02;31.78
21086;BME280;34247;50.064;19.970;2023-05-22T09:39:42;99379.91;;;24.94;31.85
21086;BME280;34247;50.064;19.970;2023-05-22T09:41:36;99381.16;;;24.70;32.49
21086;BME280;34247;50.064;19.970;2023-05-22T09:43:27;99378.31;;;24.57;32.57
21086;BME280;34247;50.064;19.970;2023-05-22T09:45:21;99377.47;;;24.57;32.86
21086;BME280;34247;50.064;19.970;2023-05-22T09:47:12;99382.97;;;24.63;33.01
21086;BME280;34247;50.064;19.970;2023-05-22T09:49:03;99381.25;;;24.62;32.73
21086;BME280;34247;50.064;19.970;2023-05-22T09:51:00;99375.50;;;24.51;32.72
21086;BME280;34247;50.064;19.970;2023-05-22T09:52:53;99379.00;;;24.44;32.78
21086;BME280;34247;50.064;19.970;2023-05-22T09:54:54;99368.91;;;24.38;32.87
21086;BME280;34247;50.064;19.970;2023-05-22T09:56:48;99378.28;;;24.21;32.54
21086;BME280;34247;50.064;19.970;2023-05-22T09:58:41;99366.50;;;24.14;32.86
21086;BME280;34247;50.064;19.970;2023-05-22T10:00:33;99366.88;;;24.11;33.14
21086;BME280;34247;50.064;19.970;2023-05-22T10:02:27;99370.25;;;24.13;33.08
21086;BME280;34247;50.064;19.970;2023-05-22T10:04:21;99370.97;;;24.21;33.06
21086;BME280;34247;50.064;19.970;2023-05-22T10:06:15;99370.38;;;24.26;32.88
21086;BME280;34247;50.064;19.970;2023-05-22T10:08:20;99372.34;;;24.32;33.30
21086;BME280;34247;50.064;19.970;2023-05-22T10:10:23;99361.16;;;24.35;33.61
21086;BME280;34247;50.064;19.970;2023-05-22T10:12:20;99360.84;;;24.30;33.96
21086;BME280;34247;50.064;19.970;2023-05-22T10:14:17;99364.03;;;24.19;34.61
21086;BME280;34247;50.064;19.970;2023-05-22T10:16:18;99364.00;;;24.12;34.49
21086;BME280;34247;50.064;19.970;2023-05-22T10:18:11;99360.72;;;24.02;34.81
21086;BME280;34247;50.064;19.970;2023-05-22T10:20:08;99359.06;;;23.86;34.91
21086;BME280;34247;50.064;19.970;2023-05-22T10:22:10;99358.44;;;23.70;35.19
21086;BME280;34247;50.064;19.970;2023-05-22T10:24:04;99364.56;;;23.49;35.67
21086;BME280;34247;50.064;19.970;2023-05-22T10:25:57;99361.19;;;23.47;35.63
21086;BME280;34247;50.064;19.970;2023-05-22T10:27:52;99366.22;;;23.50;35.74
21086;BME280;34247;50.064;19.970;2023-05-22T10:37:44;99343.84;;;23.71;34.68
21086;BME280;34247;50.064;19.970;2023-05-22T10:40:01;99343.09;;;23.77;33.97
21086;BME280;34247;50.064;19.970;2023-05-22T10:41:57;99353.47;;;23.73;33.80
21086;BME280;34247;50.064;19.970;2023-05-22T10:43:49;99355.72;;;23.70;33.74
21086;BME280;34247;50.064;19.970;2023-05-22T10:45:45;99349.38;;;23.62;33.83
21086;BME280;34247;50.064;19.970;2023-05-22T10:47:36;99344.56;;;23.50;33.97
21086;BME280;34247;50.064;19.970;2023-05-22T10:49:28;99352.69;;;23.50;34.23
21086;BME280;34247;50.064;19.970;2023-05-22T10:51:21;99337.28;;;23.50;34.22
21086;BME280;34247;50.064;19.970;2023-05-22T10:53:31;99335.59;;;23.49;34.50
21086;BME280;34247;50.064;19.970;2023-05-22T10:55:22;99338.50;;;23.48;34.22
21086;BME280;34247;50.064;19.970;2023-05-22T10:57:16;99339.13;;;23.50;34.30
21086;BME280;34247;50.064;19.970;2023-05-22T10:59:07;99337.28;;;23.50;34.39
21086;BME280;34247;50.064;19.970;2023-05-22T11:01:14;99340.16;;;23.49;34.06
21086;BME280;34247;50.064;19.970;2023-05-22T11:03:05;99339.88;;;23.44;34.19
21086;BME280;34247;50.064;19.970;2023-05-22T11:07:22;99321.84;;;23.51;34.26
21086;BME280;34247;50.064;19.970;2023-05-22T11:09:33;99327.19;;;23.59;33.93
21086;BME280;34247;50.064;19.970;2023-05-22T11:11:30;99326.00;;;23.61;33.81
21086;BME280;34247;50.064;19.970;2023-05-22T11:13:25;99320.41;;;23.63;33.48
21086;BME280;34247;50.064;19.970;2023-05-22T11:15:30;99316.84;;;23.62;33.65
21086;BME280;34247;50.064;19.970;2023-05-22T11:17:40;99323.75;;;23.65;33.48
21086;BME280;34247;50.064;19.970;2023-05-22T11:19:31;99316.34;;;23.59;33.69
21086;BME280;34247;50.064;19.970;2023-05-22T11:21:22;99320.72;;;23.60;33.57
21086;BME280;34247;50.064;19.970;2023-05-22T11:23:17;99312.50;;;23.53;33.48
21086;BME280;34247;50.064;19.970;2023-05-22T11:25:16;99305.59;;;23.51;33.63
21086;BME280;34247;50.064;19.970;2023-05-22T11:27:08;99302.25;;;23.49;33.59
21086;BME280;34247;50.064;19.970;2023-05-22T11:29:00;99293.47;;;23.47;33.46
21086;BME280;34247;50.064;19.970;2023-05-22T11:30:53;99304.97;;;23.49;33.63
21086;BME280;34247;50.064;19.970;2023-05-22T11:32:45;99301.84;;;23.52;33.62
21086;BME280;34247;50.064;19.970;2023-05-22T11:34:38;99303.63;;;23.59;33.20
21086;BME280;34247;50.064;19.970;2023-05-22T11:36:29;99306.47;;;23.66;33.09
21086;BME280;34247;50.064;19.970;2023-05-22T11:38:21;99310.84;;;23.67;32.40
21086;BME280;34247;50.064;19.970;2023-05-22T11:40:17;99293.50;;;23.61;32.26
21086;BME280;34247;50.064;19.970;2023-05-22T11:42:09;99307.03;;;23.47;32.11
21086;BME280;34247;50.064;19.970;2023-05-22T11:44:07;99296.81;;;23.49;32.34
21086;BME280;34247;50.064;19.970;2023-05-22T11:46:08;99298.97;;;23.53;32.03
21086;BME280;34247;50.064;19.970;2023-05-22T11:47:59;99307.88;;;23.62;31.94
21086;BME280;34247;50.064;19.970;2023-05-22T11:49:52;99300.84;;;23.67;31.73
21086;BME280;34247;50.064;19.970;2023-05-22T11:51:44;99296.75;;;23.72;31.97
21086;BME280;34247;50.064;19.970;2023-05-22T11:53:35;99303.28;;;23.77;31.78
21086;BME280;34247;50.064;19.970;2023-05-22T11:55:26;99292.81;;;23.74;31.33
21086;BME280;34247;50.064;19.970;2023-05-22T11:57:19;99298.91;;;23.76;31.12
21086;BME280;34247;50.064;19.970;2023-05-22T11:59:10;99296.84;;;23.78;31.19
21086;BME280;34247;50.064;19.970;2023-05-22T12:01:03;99293.94;;;23.80;30.91
21086;BME280;34247;50.064;19.970;2023-05-22T12:02:54;99293.38;;;23.84;31.07
21086;BME280;34247;50.064;19.970;2023-05-22T12:05:06;99298.41;;;23.87;30.89
21086;BME280;34247;50.064;19.970;2023-05-22T12:06:58;99291.31;;;23.86;31.00
21086;BME280;34247;50.064;19.970;2023-05-22T12:08:53;99299.53;;;23.93;31.30
21086;BME280;34247;50.064;19.970;2023-05-22T12:10:49;99296.31;;;23.89;30.67
21086;BME280;34247;50.064;19.970;2023-05-22T12:12:42;99294.22;;;23.85;30.79
21086;BME280;34247;50.064;19.970;2023-05-22T12:14:34;99300.28;;;23.87;31.04
21086;BME280;34247;50.064;19.970;2023-05-22T12:16:25;99300.75;;;23.90;31.24
21086;BME280;34247;50.064;19.970;2023-05-22T12:18:17;99293.63;;;23.89;31.11
21086;BME280;34247;50.064;19.970;2023-05-22T12:20:12;99299.72;;;23.91;31.50
21086;BME280;34247;50.064;19.970;2023-05-22T12:22:04;99296.25;;;23.98;31.34
21086;BME280;34247;50.064;19.970;2023-05-22T12:24:01;99298.16;;;24.04;31.45
21086;BME280;34247;50.064;19.970;2023-05-22T12:26:01;99293.66;;;24.11;31.27
21086;BME280;34247;50.064;19.970;2023-05-22T12:27:53;99280.19;;;24.17;31.29
21086;BME280;34247;50.064;19.970;2023-05-22T12:29:44;99284.56;;;24.18;31.30
21086;BME280;34247;50.064;19.970;2023-05-22T12:31:36;99283.16;;;24.23;31.19
21086;BME280;34247;50.064;19.970;2023-05-22T12:33:29;99275.88;;;24.23;30.99
21086;BME280;34247;50.064;19.970;2023-05-22T12:35:21;99266.81;;;24.16;30.97
21086;BME280;34247;50.064;19.970;2023-05-22T12:37:22;99267.03;;;24.14;30.84
21086;BME280;34247;50.064;19.970;2023-05-22T12:39:17;99273.84;;;24.10;30.93
21086;BME280;34247;50.064;19.970;2023-05-22T12:41:08;99255.25;;;24.07;30.85
21086;BME280;34247;50.064;19.970;2023-05-22T12:42:59;99263.41;;;24.07;30.56
21086;BME280;34247;50.064;19.970;2023-05-22T12:44:58;99260.28;;;24.10;30.65
21086;BME280;34247;50.064;19.970;2023-05-22T12:46:56;99249.63;;;24.09;30.66
21086;BME280;34247;50.064;19.970;2023-05-22T12:48:46;99257.97;;;24.07;30.52
21086;BME280;34247;50.064;19.970;2023-05-22T12:50:38;99249.00;;;24.07;30.57
21086;BME280;34247;50.064;19.970;2023-05-22T12:52:30;99254.44;;;24.07;30.77
21086;BME280;34247;50.064;19.970;2023-05-22T12:54:21;99248.25;;;24.13;30.34
21086;BME280;34247;50.064;19.970;2023-05-22T12:56:13;99249.31;;;24.18;30.17
21086;BME280;34247;50.064;19.970;2023-05-22T12:58:05;99256.31;;;24.28;30.33
21086;BME280;34247;50.064;19.970;2023-05-22T12:59:57;99252.75;;;24.27;30.43
21086;BME280;34247;50.064;19.970;2023-05-22T13:01:48;99244.72;;;24.34;30.62
21086;BME280;34247;50.064;19.970;2023-05-22T13:03:40;99253.56;;;24.42;30.35
21086;BME280;34247;50.064;19.970;2023-05-22T13:05:31;99255.03;;;24.45;30.78
21086;BME280;34247;50.064;19.970;2023-05-22T13:07:22;99253.38;;;24.44;31.13
21086;BME280;34247;50.064;19.970;2023-05-22T13:09:13;99252.13;;;24.46;30.85
21086;BME280;34247;50.064;19.970;2023-05-22T13:11:04;99261.16;;;24.54;30.70
21086;BME280;34247;50.064;19.970;2023-05-22T13:12:55;99241.34;;;24.53;31.08
21086;BME280;34247;50.064;19.970;2023-05-22T13:14:46;99241.81;;;24.57;31.23
21086;BME280;34247;50.064;19.970;2023-05-22T13:16:37;99241.53;;;24.52;31.30
21086;BME280;34247;50.064;19.970;2023-05-22T13:18:28;99238.63;;;24.53;31.18
21086;BME280;34247;50.064;19.970;2023-05-22T13:20:19;99238.41;;;24.55;31.34
21086;BME280;34247;50.064;19.970;2023-05-22T13:22:10;99239.41;;;24.47;31.24
21086;BME280;34247;50.064;19.970;2023-05-22T13:24:01;99237.53;;;24.47;31.31
21086;BME280;34247;50.064;19.970;2023-05-22T13:25:52;99234.81;;;24.47;31.37
21086;BME280;34247;50.064;19.970;2023-05-22T13:27:44;99237.53;;;24.47;31.43
21086;BME280;34247;50.064;19.970;2023-05-22T13:29:35;99240.06;;;24.49;31.41
21086;BME280;34247;50.064;19.970;2023-05-22T13:31:26;99225.47;;;24.50;31.37
21086;BME280;34247;50.064;19.970;2023-05-22T13:33:17;99227.56;;;24.55;31.17
21086;BME280;34247;50.064;19.970;2023-05-22T13:35:09;99218.44;;;24.62;31.14
21086;BME280;34247;50.064;19.970;2023-05-22T13:37:00;99224.13;;;24.67;31.02
21086;BME280;34247;50.064;19.970;2023-05-22T13:38:52;99227.25;;;24.64;30.56
21086;BME280;34247;50.064;19.970;2023-05-22T13:40:43;99226.16;;;24.59;31.08
21086;BME280;34247;50.064;19.970;2023-05-22T13:42:40;99219.44;;;24.55;31.62
21086;BME280;34247;50.064;19.970;2023-05-22T13:44:32;99218.72;;;24.46;31.56
21086;BME280;34247;50.064;19.970;2023-05-22T13:46:23;99204.06;;;24.40;31.83
21086;BME280;34247;50.064;19.970;2023-05-22T13:48:14;99211.31;;;24.33;31.71
21086;BME280;34247;50.064;19.970;2023-05-22T13:50:06;99214.41;;;24.30;31.71
21086;BME280;34247;50.064;19.970;2023-05-22T13:51:58;99206.84;;;24.26;31.96
21086;BME280;34247;50.064;19.970;2023-05-22T13:53:49;99213.50;;;24.23;32.15
21086;BME280;34247;50.064;19.970;2023-05-22T13:55:41;99211.03;;;24.28;31.96
21086;BME280;34247;50.064;19.970;2023-05-22T13:57:33;99209.25;;;24.35;32.02
21086;BME280;34247;50.064;19.970;2023-05-22T13:59:24;99210.09;;;24.36;32.19
21086;BME280;34247;50.064;19.970;2023-05-22T14:01:15;99212.19;;;24.34;32.17
21086;BME280;34247;50.064;19.970;2023-05-22T14:03:06;99205.72;;;24.35;31.93
21086;BME280;34247;50.064;19.970;2023-05-22T14:04:58;99209.25;;;24.35;32.02
21086;BME280;34247;50.064;19.970;2023-05-22T14:06:50;99197.91;;;24.32;31.89
21086;BME280;34247;50.064;19.970;2023-05-22T14:08:41;99204.78;;;24.28;32.21
21086;BME280;34247;50.064;19.970;2023-05-22T14:10:32;99214.97;;;24.26;32.31
21086;BME280;34247;50.064;19.970;2023-05-22T14:12:23;99195.91;;;24.19;32.46
21086;BME280;34247;50.064;19.970;2023-05-22T14:14:14;99197.34;;;24.15;32.78
21086;BME280;34247;50.064;19.970;2023-05-22T14:16:05;99201.09;;;24.14;32.50
21086;BME280;34247;50.064;19.970;2023-05-22T14:17:57;99201.53;;;24.17;32.84
21086;BME280;34247;50.064;19.970;2023-05-22T14:19:47;99200.56;;;24.25;32.64
21086;BME280;34247;50.064;19.970;2023-05-22T14:21:38;99204.94;;;24.26;32.51
21086;BME280;34247;50.064;19.970;2023-05-22T14:23:29;99203.69;;;24.22;31.99
21086;BME280;34247;50.064;19.970;2023-05-22T14:25:20;99197.16;;;24.16;32.11
21086;BME280;34247;50.064;19.970;2023-05-22T14:27:12;99193.59;;;24.16;32.38
21086;BME280;34247;50.064;19.970;2023-05-22T14:29:06;99189.03;;;24.16;31.96
21086;BME280;34247;50.064;19.970;2023-05-22T14:30:57;99192.38;;;24.18;31.90
21086;BME280;34247;50.064;19.970;2023-05-22T14:32:48;99184.28;;;24.25;32.17
21086;BME280;34247;50.064;19.970;2023-05-22T14:34:39;99179.13;;;24.30;31.75
21086;BME280;34247;50.064;19.970;2023-05-22T14:36:31;99175.88;;;24.35;31.93
21086;BME280;34247;50.064;19.970;2023-05-22T14:38:21;99179.22;;;24.37;31.93
21086;BME280;34247;50.064;19.970;2023-05-22T14:40:13;99186.13;;;24.39;31.71
21086;BME280;34247;50.064;19.970;2023-05-22T14:42:04;99189.25;;;24.36;31.91